Aeroporto :
LOGIN :

Iscrizione | Disclaimer

   EN    FR    IT 

 










Sommario :    VFR   VFR Marginale   IFR   IFR Intensivo   IFR Molto Intensivo
Visibilità : 
Base nubi : 
>= 8 km
>= 3000ft
5 / 8 km
1000 / 3000 ft
1500m / 5 km
500 / 1000 ft
800 / 1500m
200 / 500 ft
< 800m
< 200 ft
Simboli :   Temporali  Nebbia  Neve Forte  Precipitazioni Forti  Vento > 20 kt
SIGMETs :   Varie  Temporali  Ghiacco  Turbolenza  Onda orograficha  Ceneri Vulcaniche






- Altitudine del aeroporto : 517 ft
- Codice IATA : GML


UKKM - Antonov

ULTIMO METAR :
  • 021330Z 27009MPS CAVOK 11/M08 Q1010 R33/CLRD60 TEMPO 25009G14MPS

METARs OBSOLETI :
  • 021300Z 27008MPS CAVOK 11/M08 Q1010 R33/CLRD60 TEMPO 25009G14MPS
  • 021230Z 27008MPS 230V290 CAVOK 11/M08 Q1011 R33/CLRD60 TEMPO 25009G14MPS
  • 021214Z 27008G14MPS CAVOK 11/M08 Q1011 R33/CLRD60 NOSIG
  • 021200Z 26007MPS 220V290 CAVOK 11/M08 Q1011 R33/CLRD60 NOSIG
  • 021130Z 27008MPS CAVOK 10/M08 Q1011 R33/CLRD60 NOSIG
  • 021100Z 26007G12MPS 230V300 CAVOK 10/M08 Q1011 R33/CLRD60 NOSIG

TAF TAF UKKM
Valido dal 02 a 12 ore il 03 a 12 ore UTC


021102Z 0212/0312 25006G11MPS 9999 SCT030 TX14/0312Z TNM01/0305Z
TEMPO 0212/0215 27009G14MPS SCT015CB
BECMG 0215/0217 22003G08MPS
TEMPO 0306/0312 23007G13MPS



MetMap, La meteo Aeronautica in un colpo d'occhio ! - Copyright ORBIFLY Dicembre 2007 - Disclaimer

ORBIFLY MET'MAP TEAM :

Programmazione e sviluppo : Alexandra Zaïnal
Concezione : Baudouin d'Aumeries
Aiuto per la programmazione : Marc-Olivier Méhu
Supporto tecnico e logistico : Manuel Goepfert
Aiuto per la traduzione : Arnaldo La Scala

Contatto : metmap@orbifly.com




FONTI E CREDITI :

   NOAA